Time;durP1;ratioP1;P1;durP2;ratioP2;P2;SDS_P1;SDS_P2;PMS_P1;PMS_P2;Temp;Humidity;BMP_temperature;BMP_pressure;BME280_temperature;BME280_humidity;BME280_pressure;Samples;Min_cycle;Max_cycle;Signal;HPM_P1;HPM_P2
2022/06/12 00:00:39;;;;;;;8.98;3.90;;;12.80;99.90;;;;;;5009639;28;20045;-70
2022/06/12 00:03:08;;;;;;;10.23;3.85;;;12.80;99.90;;;;;;5000674;28;20056;-70
2022/06/12 00:05:36;;;;;;;12.05;4.13;;;12.80;99.90;;;;;;5003243;28;20041;-71
2022/06/12 00:08:05;;;;;;;9.13;3.58;;;12.70;99.90;;;;;;5004326;28;20566;-70
2022/06/12 00:10:32;;;;;;;11.38;3.92;;;12.70;99.90;;;;;;4985939;28;20521;-70
2022/06/12 00:12:57;;;;;;;10.40;3.97;;;12.70;99.90;;;;;;5035253;28;20052;-70
2022/06/12 00:15:27;;;;;;;10.43;4.00;;;12.70;99.90;;;;;;5002303;28;20373;-70
2022/06/12 00:17:53;;;;;;;12.70;4.47;;;12.70;99.90;;;;;;5000263;28;20045;-70
2022/06/12 00:20:24;;;;;;;8.18;3.58;;;12.70;99.90;;;;;;5005296;28;20050;-70
2022/06/12 00:22:52;;;;;;;11.40;3.80;;;12.70;99.90;;;;;;5003353;28;20064;-70
2022/06/12 00:25:20;;;;;;;10.70;3.65;;;12.70;99.90;;;;;;5002534;28;20044;-70
2022/06/12 00:27:46;;;;;;;10.43;3.90;;;12.70;99.90;;;;;;4987848;28;20382;-70
2022/06/12 00:30:19;;;;;;;7.90;3.40;;;12.70;99.90;;;;;;5004915;28;20060;-70
2022/06/12 00:32:49;;;;;;;12.23;3.63;;;12.70;99.90;;;;;;5008537;28;20655;-70
2022/06/12 00:35:17;;;;;;;9.95;3.38;;;12.60;99.90;;;;;;5036857;28;20515;-71
2022/06/12 00:37:43;;;;;;;8.15;3.50;;;12.60;99.90;;;;;;5008673;28;20048;-70
2022/06/12 00:40:13;;;;;;;10.10;3.53;;;12.60;99.90;;;;;;5015126;28;20493;-70
2022/06/12 00:42:51;;;;;;;10.00;3.70;;;12.60;99.90;;;;;;5024249;28;20523;-70
2022/06/12 00:45:47;;;;;;;8.27;4.15;;;12.60;99.90;;;;;;4997701;28;20113;-70
2022/06/12 00:48:23;;;;;;;12.80;4.57;;;12.60;99.90;;;;;;4988082;28;20050;-70
2022/06/12 00:51:17;;;;;;;9.65;3.67;;;12.60;99.90;;;;;;4987261;28;20081;-70
2022/06/12 00:53:58;;;;;;;9.27;3.95;;;12.60;99.90;;;;;;4990373;28;20389;-70
2022/06/12 00:56:30;;;;;;;9.00;3.67;;;12.60;99.90;;;;;;4983557;28;20662;-70
2022/06/12 00:59:00;;;;;;;10.57;3.65;;;12.50;99.90;;;;;;5004381;28;20050;-70
2022/06/12 01:01:34;;;;;;;8.30;3.85;;;12.50;99.90;;;;;;5002437;28;21297;-70
2022/06/12 01:06:49;;;;;;;9.00;3.08;;;12.40;99.90;;;;;;5001348;28;20057;-70
2022/06/12 01:09:22;;;;;;;9.05;3.33;;;12.40;99.90;;;;;;4997737;28;20084;-70
2022/06/12 01:11:50;;;;;;;8.75;3.03;;;12.30;99.90;;;;;;5002842;28;20444;-70
2022/06/12 01:14:20;;;;;;;7.20;3.47;;;12.30;99.90;;;;;;4988531;28;20104;-70
2022/06/12 01:16:48;;;;;;;6.50;2.80;;;12.30;99.90;;;;;;5003519;28;20042;-70
2022/06/12 01:19:45;;;;;;;8.07;3.80;;;12.30;99.90;;;;;;5008455;28;20045;-70
2022/06/12 01:22:27;;;;;;;7.60;3.03;;;12.20;99.90;;;;;;5031676;28;20485;-70
2022/06/12 01:25:27;;;;;;;8.10;3.30;;;12.10;99.90;;;;;;5034731;28;20049;-70
2022/06/12 01:28:33;;;;;;;9.07;3.90;;;12.00;99.90;;;;;;5027062;28;20069;-70
2022/06/12 01:31:02;;;;;;;7.20;3.25;;;12.00;99.90;;;;;;4985846;28;20046;-70
2022/06/12 01:33:57;;;;;;;6.82;3.17;;;11.90;99.90;;;;;;4999293;28;20042;-70
2022/06/12 01:36:39;;;;;;;8.70;3.55;;;12.00;99.90;;;;;;5018527;28;20060;-70
2022/06/12 01:39:29;;;;;;;9.35;3.15;;;11.90;99.90;;;;;;4998623;28;20053;-70
2022/06/12 01:42:10;;;;;;;7.82;3.22;;;11.90;99.90;;;;;;4990428;28;20152;-70
2022/06/12 01:44:40;;;;;;;6.20;3.00;;;11.90;99.90;;;;;;5014763;28;20104;-70
2022/06/12 01:47:12;;;;;;;7.45;3.00;;;11.90;99.90;;;;;;5017858;28;20084;-70
2022/06/12 01:49:43;;;;;;;8.25;3.25;;;11.90;99.90;;;;;;4985744;28;20107;-70
2022/06/12 01:52:33;;;;;;;9.90;3.22;;;11.90;99.90;;;;;;4987851;28;20343;-70
2022/06/12 01:55:31;;;;;;;6.05;3.15;;;11.90;99.90;;;;;;4996800;28;20043;-70
2022/06/12 01:58:16;;;;;;;6.97;3.10;;;11.90;99.90;;;;;;4994174;28;20049;-70
2022/06/12 02:00:50;;;;;;;7.35;2.85;;;11.80;99.90;;;;;;5033188;28;20069;-70
2022/06/12 02:03:28;;;;;;;10.05;3.13;;;11.80;99.90;;;;;;4990996;28;20045;-71
2022/06/12 02:06:26;;;;;;;7.60;3.10;;;11.80;99.90;;;;;;5027637;28;20523;-70
2022/06/12 02:08:59;;;;;;;7.50;2.90;;;11.90;99.90;;;;;;4987417;28;20575;-70
2022/06/12 02:14:43;;;;;;;6.38;2.75;;;11.80;99.90;;;;;;5034237;28;20054;-70
2022/06/12 02:17:16;;;;;;;8.35;3.00;;;11.70;99.90;;;;;;4985029;28;20052;-70
2022/06/12 02:19:46;;;;;;;7.05;2.95;;;11.70;99.90;;;;;;4991261;28;20391;-70
2022/06/12 02:22:20;;;;;;;8.95;3.22;;;11.70;99.90;;;;;;4994321;28;20053;-70
2022/06/12 02:24:59;;;;;;;8.38;3.15;;;11.70;99.90;;;;;;4993759;28;20102;-70
2022/06/12 02:27:33;;;;;;;8.80;3.40;;;11.60;99.90;;;;;;4994908;28;20040;-70
2022/06/12 02:30:07;;;;;;;10.02;3.20;;;11.60;99.90;;;;;;4976333;28;20058;-70
2022/06/12 02:32:44;;;;;;;6.72;3.33;;;11.60;99.90;;;;;;5010077;28;20119;-70
2022/06/12 02:35:31;;;;;;;7.30;2.65;;;11.60;99.90;;;;;;5022904;28;20380;-70
2022/06/12 02:38:04;;;;;;;10.25;3.45;;;11.70;99.90;;;;;;4979385;28;20539;-70
2022/06/12 02:40:35;;;;;;;11.07;3.80;;;11.60;99.90;;;;;;4981912;28;20056;-70
2022/06/12 02:43:08;;;;;;;11.05;4.07;;;11.70;99.90;;;;;;5030171;28;20132;-70
2022/06/12 02:45:39;;;;;;;8.10;3.33;;;11.70;99.90;;;;;;4997512;28;20042;-70
2022/06/12 02:48:07;;;;;;;7.97;3.60;;;11.70;99.90;;;;;;4988365;28;20501;-70
2022/06/12 02:50:53;;;;;;;7.05;3.20;;;11.70;99.90;;;;;;5022449;28;20068;-70
2022/06/12 02:53:19;;;;;;;7.35;2.85;;;11.70;99.90;;;;;;4981804;28;20030;-70
2022/06/12 02:56:05;;;;;;;8.30;3.58;;;11.70;99.90;;;;;;5000521;28;20136;-70
2022/06/12 02:58:40;;;;;;;7.97;3.13;;;11.70;99.90;;;;;;5001566;28;20053;-70
2022/06/12 03:01:16;;;;;;;7.65;3.20;;;11.70;99.90;;;;;;5040076;28;20516;-71
2022/06/12 03:04:02;;;;;;;9.85;3.63;;;11.80;99.90;;;;;;5004368;28;20119;-70
2022/06/12 03:06:29;;;;;;;9.50;3.22;;;11.80;99.90;;;;;;4983722;28;20045;-70
2022/06/12 03:08:58;;;;;;;7.03;2.80;;;11.80;99.90;;;;;;4998102;28;20069;-70
2022/06/12 03:11:35;;;;;;;9.18;3.30;;;11.70;99.90;;;;;;5001175;28;20049;-70
2022/06/12 03:14:08;;;;;;;;;;;11.80;99.90;;;;;;4984317;28;20069;-70
2022/06/12 03:16:37;;;;;;;8.95;3.45;;;11.70;99.90;;;;;;5024751;28;20408;-70
2022/06/12 03:19:12;;;;;;;8.70;3.42;;;11.80;99.90;;;;;;5025216;28;20045;-70
2022/06/12 03:21:47;;;;;;;11.73;3.33;;;11.80;99.90;;;;;;4999965;28;20808;-70
2022/06/12 03:24:20;;;;;;;6.35;2.92;;;11.80;99.90;;;;;;4984641;28;20069;-70
2022/06/12 03:27:06;;;;;;;9.88;3.42;;;11.80;99.90;;;;;;4999515;28;20453;-70
2022/06/12 03:29:35;;;;;;;8.40;3.33;;;11.90;99.90;;;;;;5037627;28;20530;-70
2022/06/12 03:32:10;;;;;;;9.20;3.30;;;11.80;99.90;;;;;;4997439;28;20045;-70
2022/06/12 03:34:46;;;;;;;8.57;3.67;;;11.90;99.90;;;;;;5018274;28;20054;-70
2022/06/12 03:37:24;;;;;;;10.32;3.97;;;11.80;99.90;;;;;;4997710;28;20104;-70
2022/06/12 03:40:15;;;;;;;10.52;4.45;;;11.90;99.90;;;;;;5000309;28;20066;-70
2022/06/12 03:42:45;;;;;;;8.57;3.47;;;11.90;99.90;;;;;;4980363;28;20054;-71
2022/06/12 03:45:22;;;;;;;12.15;4.15;;;11.80;99.90;;;;;;5025017;28;20125;-71
2022/06/12 03:48:14;;;;;;;10.30;5.25;;;11.90;99.90;;;;;;4998516;28;20509;-71
2022/06/12 03:50:48;;;;;;;8.38;3.45;;;11.80;99.90;;;;;;4980105;28;20139;-71
2022/06/12 03:53:23;;;;;;;9.73;3.90;;;11.90;99.90;;;;;;5029219;28;20060;-71
2022/06/12 03:59:14;;;;;;;9.63;4.10;;;12.00;99.90;;;;;;5000084;28;20054;-71
2022/06/12 04:01:42;;;;;;;8.95;3.45;;;12.00;99.90;;;;;;4993389;28;20137;-71
2022/06/12 04:04:09;;;;;;;11.88;4.60;;;12.00;99.90;;;;;;4986184;28;20061;-71
2022/06/12 04:06:36;;;;;;;10.30;4.05;;;12.00;99.90;;;;;;5015205;28;20037;-71
2022/06/12 04:09:12;;;;;;;9.90;3.85;;;12.00;99.90;;;;;;5020775;28;20112;-71
2022/06/12 04:11:41;;;;;;;14.52;4.07;;;12.10;99.90;;;;;;4990651;28;20481;-71
2022/06/12 04:14:12;;;;;;;7.90;3.42;;;12.10;99.90;;;;;;5003717;28;20054;-71
2022/06/12 04:16:38;;;;;;;10.05;4.38;;;12.10;99.90;;;;;;4993374;28;20100;-72
2022/06/12 04:19:11;;;;;;;11.70;3.92;;;12.10;99.90;;;;;;5010460;28;20061;-71
2022/06/12 04:21:50;;;;;;;9.80;4.30;;;12.00;99.90;;;;;;4984912;28;20058;-70
2022/06/12 04:24:23;;;;;;;10.60;3.47;;;12.10;99.90;;;;;;5011813;28;20050;-70
2022/06/12 04:26:57;;;;;;;13.65;4.50;;;12.10;99.90;;;;;;4995954;28;20046;-71
2022/06/12 04:29:57;;;;;;;9.70;3.58;;;12.10;99.90;;;;;;4985843;28;20050;-70
2022/06/12 04:32:23;;;;;;;10.48;4.07;;;12.20;99.90;;;;;;5010562;28;20133;-70
2022/06/12 04:34:53;;;;;;;9.02;3.58;;;12.20;99.90;;;;;;5005480;28;20050;-70
2022/06/12 04:37:23;;;;;;;12.60;3.80;;;12.30;99.90;;;;;;4992347;28;20060;-70
2022/06/12 04:39:53;;;;;;;11.40;3.92;;;12.30;99.90;;;;;;5012632;28;20697;-71
2022/06/12 04:42:25;;;;;;;12.55;3.97;;;12.30;99.90;;;;;;4974745;28;20560;-71
2022/06/12 04:44:54;;;;;;;10.88;4.45;;;12.40;99.90;;;;;;4994812;28;20326;-70
2022/06/12 04:47:23;;;;;;;10.55;3.83;;;12.40;99.90;;;;;;5017474;28;20089;-70
2022/06/12 04:49:52;;;;;;;8.83;3.70;;;12.50;99.90;;;;;;4996446;28;20045;-70
2022/06/12 04:52:21;;;;;;;9.60;3.53;;;12.60;99.90;;;;;;4998574;28;20289;-71
2022/06/12 04:54:47;;;;;;;11.57;3.38;;;12.60;99.90;;;;;;5001547;28;20069;-71
2022/06/12 04:57:16;;;;;;;9.57;3.45;;;12.70;99.90;;;;;;4995241;28;20581;-70
2022/06/12 04:59:43;;;;;;;9.95;3.58;;;12.70;99.90;;;;;;4994625;28;20042;-71
2022/06/12 05:02:10;;;;;;;10.13;3.67;;;12.80;99.90;;;;;;4990861;28;20060;-70
2022/06/12 05:04:37;;;;;;;10.88;3.95;;;12.80;99.90;;;;;;4992719;28;20409;-70
2022/06/12 05:07:04;;;;;;;10.02;3.63;;;12.90;99.90;;;;;;4983112;28;20045;-70
2022/06/12 05:09:33;;;;;;;8.10;3.50;;;12.90;99.90;;;;;;4995185;28;20053;-71
2022/06/12 05:11:59;;;;;;;11.57;3.92;;;13.00;99.90;;;;;;4999721;28;20046;-70
2022/06/12 05:14:25;;;;;;;8.65;3.15;;;13.10;99.90;;;;;;4989324;28;20030;-70
2022/06/12 05:16:51;;;;;;;10.50;4.45;;;13.10;99.90;;;;;;5005430;28;20113;-70
2022/06/12 05:19:26;;;;;;;12.60;3.65;;;13.20;99.90;;;;;;5018001;28;20513;-70
2022/06/12 05:21:52;;;;;;;14.55;4.63;;;13.20;99.90;;;;;;4994841;28;20515;-70
2022/06/12 05:24:18;;;;;;;10.98;3.80;;;13.30;99.90;;;;;;5019093;28;20568;-70
2022/06/12 05:26:49;;;;;;;8.85;3.65;;;13.30;99.90;;;;;;5000213;28;20130;-70
2022/06/12 05:29:20;;;;;;;11.90;3.40;;;13.40;99.90;;;;;;4984194;28;20132;-71
2022/06/12 05:31:46;;;;;;;12.98;4.07;;;13.50;99.90;;;;;;4997008;28;20537;-71
2022/06/12 05:34:14;;;;;;;12.15;4.28;;;13.60;99.90;;;;;;4980803;28;20119;-70
2022/06/12 05:36:40;;;;;;;13.70;4.22;;;13.60;99.90;;;;;;5002548;28;20501;-70
2022/06/12 05:39:09;;;;;;;11.98;3.97;;;13.70;99.90;;;;;;5005693;28;20125;-70
2022/06/12 05:41:35;;;;;;;10.60;4.67;;;13.70;99.90;;;;;;4989922;28;20500;-70
2022/06/12 05:44:04;;;;;;;11.38;3.70;;;13.80;99.90;;;;;;5004243;28;20325;-70
2022/06/12 05:46:31;;;;;;;11.20;4.28;;;13.80;99.90;;;;;;5021227;28;20060;-69
2022/06/12 05:48:59;;;;;;;12.07;4.57;;;13.90;99.90;;;;;;5004020;28;20046;-70
2022/06/12 05:51:25;;;;;;;11.35;4.03;;;14.00;99.90;;;;;;4984830;28;20042;-70
2022/06/12 05:53:51;;;;;;;13.90;4.32;;;14.10;99.90;;;;;;4987014;28;20125;-70
2022/06/12 05:56:20;;;;;;;12.23;3.90;;;14.20;99.90;;;;;;4995764;28;20493;-70
2022/06/12 05:58:46;;;;;;;12.30;4.18;;;14.30;99.90;;;;;;5001453;28;20121;-70
2022/06/12 06:01:15;;;;;;;13.88;4.90;;;14.30;99.90;;;;;;4981919;28;20049;-71
2022/06/12 06:03:41;;;;;;;14.38;4.40;;;14.30;99.90;;;;;;4987490;28;20535;-71
2022/06/12 06:06:09;;;;;;;9.70;4.30;;;14.40;99.90;;;;;;5005058;28;20042;-71
2022/06/12 06:08:35;;;;;;;14.48;4.13;;;14.40;99.90;;;;;;4983125;28;20041;-71
2022/06/12 06:11:02;;;;;;;15.70;4.70;;;14.50;99.90;;;;;;4984360;28;20571;-70
2022/06/12 06:13:28;;;;;;;16.95;5.13;;;14.60;99.90;;;;;;4981566;28;20048;-71
2022/06/12 06:15:53;;;;;;;13.40;4.95;;;14.60;99.90;;;;;;5007776;28;20408;-71
2022/06/12 06:18:20;;;;;;;15.05;4.85;;;14.70;99.90;;;;;;4997694;28;20068;-70
2022/06/12 06:20:47;;;;;;;14.10;4.70;;;14.80;99.90;;;;;;4984742;28;20042;-71
2022/06/12 06:23:13;;;;;;;12.77;4.10;;;14.90;99.90;;;;;;5004644;28;20108;-71
2022/06/12 06:25:41;;;;;;;15.15;4.43;;;14.90;99.90;;;;;;4999518;28;20099;-71
2022/06/12 06:28:08;;;;;;;9.88;4.40;;;15.00;99.90;;;;;;5034798;28;20492;-71
2022/06/12 06:30:35;;;;;;;14.27;4.78;;;15.10;99.90;;;;;;4985212;28;20033;-71
2022/06/12 06:33:01;;;;;;;11.85;4.70;;;15.10;99.90;;;;;;5001481;28;20050;-71
2022/06/12 06:35:27;;;;;;;14.77;5.28;;;15.20;99.90;;;;;;4988688;28;20057;-71
2022/06/12 06:37:53;;;;;;;13.95;5.28;;;15.30;99.90;;;;;;4998713;28;20034;-71
2022/06/12 06:40:23;;;;;;;17.60;5.72;;;15.40;99.90;;;;;;5009720;28;20304;-71
2022/06/12 06:42:48;;;;;;;15.30;5.97;;;15.60;99.90;;;;;;4994998;28;20138;-71
2022/06/12 06:48:01;;;;;;;15.93;4.90;;;15.80;99.90;;;;;;4994674;28;20042;-71
2022/06/12 06:50:27;;;;;;;10.30;4.80;;;15.90;99.90;;;;;;4978956;28;20041;-71
2022/06/12 06:52:53;;;;;;;18.88;5.82;;;16.00;99.90;;;;;;4994201;28;20592;-71
2022/06/12 06:55:20;;;;;;;14.70;5.70;;;16.10;99.90;;;;;;4996268;28;20128;-71
2022/06/12 06:57:48;;;;;;;13.32;5.28;;;16.20;99.90;;;;;;4995663;28;20125;-71
2022/06/12 07:00:21;;;;;;;15.20;5.50;;;16.30;99.90;;;;;;4996862;28;20052;-71
2022/06/12 07:02:46;;;;;;;18.52;5.97;;;16.40;99.90;;;;;;4998880;28;20042;-71
2022/06/12 07:05:12;;;;;;;18.27;5.65;;;16.50;99.90;;;;;;4980620;28;20408;-71
2022/06/12 07:07:38;;;;;;;18.88;5.80;;;16.60;99.90;;;;;;5034696;28;20049;-71
2022/06/12 07:10:10;;;;;;;16.17;4.95;;;16.70;99.90;;;;;;4983084;28;20156;-71
2022/06/12 07:12:36;;;;;;;14.18;5.93;;;16.80;99.90;;;;;;4972594;28;20129;-72
2022/06/12 07:15:02;;;;;;;17.40;5.70;;;16.90;99.90;;;;;;4997324;28;20171;-71
2022/06/12 07:17:28;;;;;;;13.27;5.30;;;17.00;99.90;;;;;;4990131;28;20037;-72
2022/06/12 07:19:54;;;;;;;17.95;6.32;;;17.00;99.90;;;;;;4970213;28;20569;-71
2022/06/12 07:22:21;;;;;;;13.18;5.20;;;17.10;99.90;;;;;;4987462;28;20042;-71
2022/06/12 07:24:47;;;;;;;14.45;5.72;;;17.20;99.90;;;;;;4998075;28;20042;-71
2022/06/12 07:27:12;;;;;;;13.95;5.10;;;17.40;99.90;;;;;;4981218;28;20053;-71
2022/06/12 07:29:39;;;;;;;18.98;6.28;;;17.50;99.90;;;;;;4984573;28;20050;-71
2022/06/12 07:32:05;;;;;;;13.68;5.30;;;17.70;99.90;;;;;;5001923;28;20053;-72
2022/06/12 07:34:32;;;;;;;14.60;4.63;;;17.80;99.90;;;;;;4996064;28;20046;-71
2022/06/12 07:36:59;;;;;;;14.25;5.35;;;17.90;99.90;;;;;;5013129;28;20038;-71
2022/06/12 07:39:27;;;;;;;15.88;5.78;;;18.00;99.90;;;;;;4980980;28;20049;-72
2022/06/12 07:41:53;;;;;;;15.43;5.18;;;18.10;99.90;;;;;;4983029;28;20038;-72
2022/06/12 07:44:23;;;;;;;15.52;4.90;;;18.30;99.90;;;;;;4976960;28;20516;-71
2022/06/12 07:46:51;;;;;;;16.42;5.30;;;18.50;99.90;;;;;;4990877;28;20042;-73
2022/06/12 07:49:17;;;;;;;15.52;5.00;;;18.60;99.90;;;;;;4979036;28;20054;-72
2022/06/12 07:51:44;;;;;;;13.75;4.72;;;18.60;99.90;;;;;;4995797;28;20057;-72
2022/06/12 07:54:11;;;;;;;13.80;4.28;;;18.40;99.90;;;;;;4984930;28;20417;-71
2022/06/12 07:56:37;;;;;;;16.35;5.03;;;18.40;99.90;;;;;;4998990;28;20058;-71
2022/06/12 07:59:04;;;;;;;15.70;5.28;;;18.50;99.90;;;;;;4984985;28;20038;-71
2022/06/12 08:01:30;;;;;;;13.45;5.05;;;18.60;99.90;;;;;;5013100;28;20100;-71
2022/06/12 08:03:57;;;;;;;12.18;4.82;;;18.70;99.90;;;;;;4974659;28;20049;-72
2022/06/12 08:06:24;;;;;;;15.70;5.40;;;18.80;99.90;;;;;;5006167;28;20041;-70
2022/06/12 08:08:50;;;;;;;14.50;4.75;;;19.00;99.90;;;;;;5006582;28;20128;-71
2022/06/12 08:11:21;;;;;;;13.77;4.72;;;19.00;99.90;;;;;;5007148;28;20089;-71
2022/06/12 08:13:47;;;;;;;15.20;4.80;;;19.10;99.90;;;;;;4982815;28;20508;-72
2022/06/12 08:16:14;;;;;;;17.08;5.25;;;19.20;99.90;;;;;;4983426;28;20042;-71
2022/06/12 08:18:40;;;;;;;13.05;4.78;;;19.30;99.90;;;;;;4994994;28;20046;-72
2022/06/12 08:21:11;;;;;;;12.70;3.78;;;19.60;99.90;;;;;;5016653;28;20042;-72
2022/06/12 08:23:52;;;;;;;15.15;4.70;;;19.80;99.90;;;;;;5000877;28;20124;-71
2022/06/12 08:26:22;;;;;;;13.55;4.20;;;19.90;99.90;;;;;;4988107;28;20400;-71
2022/06/12 08:28:57;;;;;;;15.82;4.53;;;20.00;99.90;;;;;;5000955;28;20042;-72
2022/06/12 08:31:28;;;;;;;16.23;4.43;;;20.10;99.90;;;;;;5007305;28;20045;-71
2022/06/12 08:34:00;;;;;;;14.57;4.75;;;20.10;99.90;;;;;;5005299;28;20041;-71
2022/06/12 08:36:26;;;;;;;14.90;5.82;;;20.20;99.90;;;;;;5000909;28;20492;-71
2022/06/12 08:38:52;;;;;;;15.40;4.97;;;20.20;99.90;;;;;;5017134;28;20048;-71
2022/06/12 08:41:29;;;;;;;13.77;5.00;;;20.10;99.90;;;;;;5000268;28;20493;-71
2022/06/12 08:44:19;;;;;;;14.15;4.78;;;20.20;99.90;;;;;;4991316;28;20120;-71
2022/06/12 08:46:58;;;;;;;14.32;6.32;;;20.10;99.90;;;;;;5015572;28;20042;-71
2022/06/12 08:49:45;;;;;;;13.75;4.35;;;20.20;99.90;;;;;;4987490;28;20045;-71
2022/06/12 08:52:14;;;;;;;13.27;3.90;;;20.30;99.90;;;;;;5035299;28;20057;-71
2022/06/12 08:55:12;;;;;;;12.37;3.73;;;20.50;99.90;;;;;;5004914;28;20052;-71
2022/06/12 08:57:50;;;;;;;13.90;4.88;;;20.70;99.90;;;;;;5001519;28;20293;-72
2022/06/12 09:00:26;;;;;;;16.45;4.55;;;21.00;99.90;;;;;;4999386;28;20107;-71
2022/06/12 09:02:52;;;;;;;16.50;3.83;;;21.10;99.90;;;;;;5001234;28;20049;-72
2022/06/12 09:05:26;;;;;;;13.95;4.38;;;21.20;99.90;;;;;;5010197;28;20029;-71
2022/06/12 09:08:18;;;;;;;11.27;3.92;;;21.20;99.90;;;;;;5019448;28;20054;-71
2022/06/12 09:11:15;;;;;;;16.27;4.20;;;21.40;99.90;;;;;;5009445;28;20097;-71
2022/06/12 09:13:58;;;;;;;14.35;3.45;;;21.30;99.90;;;;;;5006387;28;20100;-72
2022/06/12 09:16:40;;;;;;;13.63;4.13;;;21.10;99.90;;;;;;5009758;28;20061;-71
2022/06/12 09:19:26;;;;;;;12.70;4.18;;;21.00;99.90;;;;;;4984241;28;20038;-71
2022/06/12 09:22:13;;;;;;;14.43;4.13;;;20.90;99.90;;;;;;5007810;28;20068;-72
2022/06/12 09:24:59;;;;;;;14.05;3.92;;;21.20;99.90;;;;;;4989947;28;20053;-71
2022/06/12 09:27:38;;;;;;;12.73;3.42;;;21.40;99.90;;;;;;4995721;28;20042;-72
2022/06/12 09:30:28;;;;;;;8.38;2.90;;;21.50;99.90;;;;;;4998823;28;20054;-72
2022/06/12 09:33:09;;;;;;;9.07;2.47;;;21.50;99.90;;;;;;5000599;28;20125;-72
2022/06/12 09:35:51;;;;;;;12.13;3.08;;;21.50;99.90;;;;;;5018205;28;20119;-72
2022/06/12 09:38:29;;;;;;;10.18;2.60;;;21.60;99.90;;;;;;5003066;28;20041;-72
2022/06/12 09:41:22;;;;;;;10.15;3.00;;;21.80;99.90;;;;;;5006386;28;20814;-72
2022/06/12 09:44:14;;;;;;;5.88;2.38;;;22.00;99.90;;;;;;5036242;28;20140;-72
2022/06/12 09:47:01;;;;;;;10.40;2.33;;;22.10;99.90;;;;;;4983940;28;20057;-72
2022/06/12 09:49:43;;;;;;;8.90;2.70;;;22.40;99.90;;;;;;5004781;28;20117;-73
2022/06/12 09:52:50;;;;;;;8.90;2.17;;;22.50;99.90;;;;;;5004541;28;20128;-72
2022/06/12 09:55:45;;;;;;;8.18;1.88;;;22.70;99.90;;;;;;4991780;28;20075;-73
2022/06/12 09:58:22;;;;;;;8.13;2.40;;;23.00;99.60;;;;;;4989828;28;20378;-72
2022/06/12 10:00:53;;;;;;;8.02;2.15;;;23.00;94.70;;;;;;5006308;28;20081;-73
2022/06/12 10:03:33;;;;;;;9.70;2.85;;;22.90;95.00;;;;;;4998627;28;20046;-73
2022/06/12 10:06:25;;;;;;;8.23;2.35;;;22.90;93.20;;;;;;4999327;28;20130;-74
2022/06/12 10:09:02;;;;;;;6.30;1.83;;;23.10;97.00;;;;;;5015486;28;20511;-73
2022/06/12 10:11:37;;;;;;;7.70;2.28;;;23.30;99.90;;;;;;5031862;28;20046;-73
2022/06/12 10:14:14;;;;;;;8.20;2.38;;;23.50;99.10;;;;;;5035184;28;20045;-73
2022/06/12 10:16:50;;;;;;;10.50;2.08;;;23.50;96.80;;;;;;4987572;28;20401;-73
2022/06/12 10:19:28;;;;;;;7.70;2.10;;;23.20;95.90;;;;;;5031080;28;20171;-73
2022/06/12 10:21:58;;;;;;;8.65;2.15;;;22.70;96.80;;;;;;5014894;28;20057;-73
2022/06/12 10:24:24;;;;;;;6.45;2.13;;;22.50;97.50;;;;;;5002835;28;20053;-73
2022/06/12 10:27:02;;;;;;;5.18;1.90;;;22.30;97.80;;;;;;5018406;28;20489;-73
2022/06/12 10:29:48;;;;;;;6.55;1.75;;;22.20;97.50;;;;;;5001877;28;20050;-72
2022/06/12 10:32:36;;;;;;;7.82;1.90;;;22.10;94.10;;;;;;4999481;28;20042;-78
2022/06/12 10:35:20;;;;;;;5.38;1.65;;;22.10;93.80;;;;;;4999938;28;20045;-71
2022/06/12 10:37:45;;;;;;;7.40;2.03;;;22.20;92.30;;;;;;4986714;28;20095;-72
2022/06/12 10:40:26;;;;;;;6.97;2.00;;;22.30;91.80;;;;;;4995544;28;20190;-72
2022/06/12 10:43:08;;;;;;;8.00;2.08;;;22.50;95.70;;;;;;4984378;28;20114;-71
2022/06/12 10:45:37;;;;;;;8.18;1.73;;;22.60;96.00;;;;;;4983277;28;20045;-71
2022/06/12 10:48:26;;;;;;;6.05;1.77;;;22.60;92.00;;;;;;5002553;28;20238;-73
2022/06/12 10:51:29;;;;;;;5.43;1.80;;;22.70;93.80;;;;;;4994812;28;20041;-72
2022/06/12 10:54:16;;;;;;;5.35;1.52;;;22.90;93.90;;;;;;4993135;28;20378;-72
2022/06/12 10:57:01;;;;;;;9.52;1.92;;;23.20;89.00;;;;;;5001282;28;20449;-73
2022/06/12 10:59:33;;;;;;;4.65;1.52;;;23.20;88.20;;;;;;4985186;28;20048;-72
2022/06/12 11:02:36;;;;;;;4.85;1.60;;;23.20;91.30;;;;;;4994144;28;20046;-72
2022/06/12 11:05:40;;;;;;;6.28;1.27;;;23.20;83.40;;;;;;5014204;28;20129;-71
2022/06/12 11:08:44;;;;;;;4.10;1.20;;;23.10;81.30;;;;;;4998072;28;20074;-72
2022/06/12 11:11:28;;;;;;;3.50;1.15;;;23.10;84.50;;;;;;4961755;28;20486;-72
2022/06/12 11:14:33;;;;;;;5.88;1.52;;;23.30;80.20;;;;;;4966581;28;20182;-72
2022/06/12 11:17:23;;;;;;;4.68;1.35;;;23.30;78.50;;;;;;4967566;28;20514;-72
2022/06/12 11:20:06;;;;;;;5.32;1.27;;;23.40;77.90;;;;;;4959403;28;20123;-72
2022/06/12 11:22:48;;;;;;;5.07;1.30;;;23.50;80.90;;;;;;4994324;28;20052;-71
2022/06/12 11:25:43;;;;;;;4.85;1.50;;;23.40;73.70;;;;;;4981882;28;20519;-72
2022/06/12 11:28:25;;;;;;;6.30;1.80;;;23.30;75.50;;;;;;4994025;28;20041;-72
2022/06/12 11:30:50;;;;;;;6.32;1.67;;;23.10;77.90;;;;;;4977661;28;20056;-72
2022/06/12 11:33:37;;;;;;;7.68;2.00;;;23.00;77.30;;;;;;4996917;28;20053;-72
2022/06/12 11:36:09;;;;;;;6.18;1.60;;;23.00;81.10;;;;;;4993553;28;20526;-72
2022/06/12 11:38:38;;;;;;;6.57;2.05;;;23.20;79.90;;;;;;4999160;28;20056;-72
2022/06/12 11:41:36;;;;;;;6.13;1.55;;;23.30;77.80;;;;;;4995143;28;20178;-72
2022/06/12 11:44:26;;;;;;;6.05;2.38;;;23.50;75.80;;;;;;5023861;28;20127;-72
2022/06/12 11:47:15;;;;;;;4.68;1.50;;;23.60;78.20;;;;;;5027691;28;20045;-72
2022/06/12 11:49:56;;;;;;;4.85;1.70;;;23.70;77.90;;;;;;4995162;28;20460;-72
2022/06/12 11:52:25;;;;;;;7.63;2.08;;;23.70;79.20;;;;;;5036291;28;20472;-72
2022/06/12 11:55:03;;;;;;;4.78;1.77;;;23.70;77.90;;;;;;4999245;28;20049;-72
2022/06/12 11:57:51;;;;;;;5.20;1.80;;;23.40;76.70;;;;;;5028587;28;20053;-72
2022/06/12 12:00:22;;;;;;;6.13;1.95;;;23.20;78.80;;;;;;5003513;28;20381;-72
2022/06/12 12:02:54;;;;;;;8.65;2.15;;;23.20;84.30;;;;;;5000329;28;20116;-72
2022/06/12 12:05:31;;;;;;;6.55;1.95;;;23.10;85.30;;;;;;5020770;28;20077;-73
2022/06/12 12:08:19;;;;;;;8.75;1.90;;;23.00;83.10;;;;;;4997233;28;20136;-73
2022/06/12 12:11:13;;;;;;;5.65;1.83;;;22.80;86.30;;;;;;5038732;28;20069;-72
2022/06/12 12:13:45;;;;;;;6.53;2.05;;;22.80;87.30;;;;;;4994049;28;20038;-72
2022/06/12 12:16:39;;;;;;;6.68;1.80;;;22.80;88.00;;;;;;5003833;28;20559;-72
2022/06/12 12:19:29;;;;;;;5.63;2.05;;;23.00;90.00;;;;;;5018460;28;20050;-71
2022/06/12 12:22:00;;;;;;;9.85;2.08;;;23.00;91.40;;;;;;5002427;28;20046;-72
2022/06/12 12:24:35;;;;;;;6.53;2.00;;;22.80;85.00;;;;;;4986513;28;20049;-72
2022/06/12 12:27:05;;;;;;;6.82;2.00;;;22.80;93.30;;;;;;5033395;28;20104;-72
2022/06/12 12:29:34;;;;;;;6.40;2.38;;;22.90;91.50;;;;;;4987882;28;20133;-73
2022/06/12 12:32:04;;;;;;;8.50;2.10;;;22.80;90.10;;;;;;5020345;28;20579;-72
2022/06/12 12:34:31;;;;;;;6.57;2.00;;;22.60;91.00;;;;;;4981748;28;20783;-72
2022/06/12 12:42:40;;;;;;;8.15;2.67;;;22.70;93.70;;;;;;5034428;28;20053;-73
2022/06/12 12:45:23;;;;;;;6.35;1.85;;;22.90;93.70;;;;;;5018807;28;20048;-72
2022/06/12 12:48:09;;;;;;;7.97;2.53;;;23.00;91.40;;;;;;4987629;28;20136;-72
2022/06/12 12:50:53;;;;;;;10.30;2.17;;;23.00;95.40;;;;;;4986617;28;20587;-72
2022/06/12 12:53:27;;;;;;;7.90;2.72;;;22.90;94.20;;;;;;4997132;28;20043;-73
2022/06/12 12:56:01;;;;;;;9.57;2.42;;;22.70;92.40;;;;;;4987196;28;20080;-72
2022/06/12 12:58:28;;;;;;;11.45;2.15;;;22.60;92.90;;;;;;4987735;28;20108;-71
2022/06/12 13:01:06;;;;;;;8.07;2.00;;;22.50;92.70;;;;;;4984089;28;20041;-73
2022/06/12 13:03:55;;;;;;;7.53;2.60;;;22.40;94.10;;;;;;4983908;28;20067;-72
2022/06/12 13:06:40;;;;;;;12.70;2.78;;;22.20;93.10;;;;;;4999592;28;20049;-71
2022/06/12 13:09:08;;;;;;;9.82;2.38;;;22.00;93.40;;;;;;5002004;28;20041;-71
2022/06/12 13:12:06;;;;;;;9.32;2.40;;;21.80;95.10;;;;;;4998360;28;20163;-72
2022/06/12 13:15:01;;;;;;;7.32;2.10;;;22.00;96.50;;;;;;5026835;28;20116;-72
2022/06/12 13:18:01;;;;;;;8.73;2.40;;;22.40;97.10;;;;;;5011209;28;20145;-72
2022/06/12 13:20:32;;;;;;;;;;;22.80;95.40;;;;;;4999689;28;20046;-72
2022/06/12 13:23:36;;;;;;;7.18;1.95;;;22.90;90.60;;;;;;5023029;28;19928;-71
2022/06/12 13:26:07;;;;;;;5.32;1.80;;;22.70;90.30;;;;;;5042821;28;20045;-72
2022/06/12 13:28:34;;;;;;;7.32;1.90;;;22.30;90.10;;;;;;4987864;28;20044;-72
2022/06/12 13:31:02;;;;;;;6.90;1.80;;;22.10;92.10;;;;;;4991009;28;20044;-73
2022/06/12 13:33:32;;;;;;;8.60;1.80;;;21.90;92.30;;;;;;4996514;28;20050;-71
2022/06/12 13:36:09;;;;;;;;;;;21.70;92.30;;;;;;5009019;28;20129;-72
2022/06/12 13:38:52;;;;;;;7.82;1.75;;;21.70;95.20;;;;;;5018842;28;19921;-71
2022/06/12 13:41:31;;;;;;;6.18;2.10;;;21.70;91.00;;;;;;5005771;28;20050;-72